createdAt,value
2019-03-03T00:00:43.130Z,90.80
2019-03-03T00:02:19.644Z,91.10
2019-03-03T00:03:57.482Z,91.00
2019-03-03T00:05:34.197Z,91.10
2019-03-03T00:07:10.635Z,91.70
2019-03-03T00:08:47.029Z,91.90
2019-03-03T00:10:23.242Z,91.90
2019-03-03T00:11:59.315Z,92.10
2019-03-03T00:13:35.587Z,91.80
2019-03-03T00:15:13.306Z,91.80
2019-03-03T00:16:49.783Z,91.70
2019-03-03T00:18:26.175Z,91.70
2019-03-03T00:20:02.355Z,91.50
2019-03-03T00:21:38.767Z,91.50
2019-03-03T00:23:15.629Z,91.50
2019-03-03T00:24:51.832Z,92.00
2019-03-03T00:26:28.266Z,92.30
2019-03-03T00:28:04.561Z,92.40
2019-03-03T00:29:40.653Z,92.00
2019-03-03T00:31:19.664Z,92.30
2019-03-03T00:32:55.801Z,92.10
2019-03-03T00:34:32.105Z,91.90
2019-03-03T00:36:08.468Z,92.00
2019-03-03T00:37:50.475Z,91.80
2019-03-03T00:39:41.526Z,91.90
2019-03-03T00:41:22.594Z,92.00
2019-03-03T00:43:10.664Z,92.00
2019-03-03T00:44:48.490Z,91.90
2019-03-03T00:46:42.667Z,91.80
2019-03-03T00:48:29.197Z,91.80
2019-03-03T00:50:18.273Z,91.80
2019-03-03T00:52:09.293Z,92.60
2019-03-03T00:53:51.590Z,92.00
2019-03-03T00:55:44.553Z,92.00
2019-03-03T00:57:22.617Z,92.10
2019-03-03T00:59:06.716Z,92.10
2019-03-03T01:00:44.705Z,92.00
2019-03-03T01:02:22.615Z,92.10
2019-03-03T01:04:00.572Z,92.00
2019-03-03T01:05:55.836Z,91.90
2019-03-03T01:07:34.484Z,92.00
2019-03-03T01:09:43.231Z,91.90
2019-03-03T01:11:33.107Z,92.10
2019-03-03T01:13:16.868Z,92.30
2019-03-03T01:15:10.898Z,92.50
2019-03-03T01:16:46.894Z,92.20
2019-03-03T01:18:30.318Z,92.20
2019-03-03T01:20:17.265Z,92.30
2019-03-03T01:21:54.985Z,92.30
2019-03-03T01:23:35.705Z,92.70
2019-03-03T01:25:11.932Z,92.70
2019-03-03T01:26:48.092Z,92.60
2019-03-03T01:28:24.345Z,92.30
2019-03-03T01:30:00.504Z,92.50
2019-03-03T01:31:36.622Z,92.30
2019-03-03T01:33:12.675Z,92.30
2019-03-03T01:34:48.758Z,92.30
2019-03-03T01:36:24.846Z,92.20
2019-03-03T01:38:00.833Z,92.30
2019-03-03T01:39:36.925Z,92.40
2019-03-03T01:41:13.015Z,92.70
2019-03-03T01:42:49.169Z,92.80
2019-03-03T01:44:25.176Z,92.60
2019-03-03T01:46:01.133Z,92.40
2019-03-03T01:47:37.218Z,92.50
2019-03-03T01:49:13.341Z,92.50
2019-03-03T01:50:49.651Z,92.40
2019-03-03T01:52:28.289Z,92.40
2019-03-03T01:54:04.638Z,92.40
2019-03-03T01:55:40.770Z,92.40
2019-03-03T01:57:16.952Z,92.50
2019-03-03T01:58:52.986Z,92.50
2019-03-03T02:00:29.771Z,92.50
2019-03-03T02:02:06.201Z,92.30
2019-03-03T02:03:42.296Z,92.20
2019-03-03T02:05:19.243Z,92.30
2019-03-03T02:06:55.898Z,92.30
2019-03-03T02:08:31.981Z,92.40
2019-03-03T02:10:10.448Z,92.50
2019-03-03T02:11:46.674Z,92.50
2019-03-03T02:13:22.740Z,92.80
2019-03-03T02:14:58.832Z,92.60
2019-03-03T02:16:34.959Z,92.60
2019-03-03T02:18:11.079Z,92.50
2019-03-03T02:19:47.238Z,92.50
2019-03-03T02:21:23.610Z,92.80
2019-03-03T02:22:59.883Z,92.60
2019-03-03T02:24:36.033Z,92.50
2019-03-03T02:26:12.283Z,92.80
2019-03-03T02:27:48.500Z,93.00
2019-03-03T02:29:24.571Z,92.90
2019-03-03T02:31:00.700Z,92.70
2019-03-03T02:32:36.821Z,92.70
2019-03-03T02:34:13.001Z,92.60
2019-03-03T02:35:49.222Z,92.70
2019-03-03T02:37:25.403Z,92.80
2019-03-03T02:39:01.548Z,92.90
2019-03-03T02:40:37.640Z,92.90
2019-03-03T02:42:13.894Z,92.90
2019-03-03T02:43:50.155Z,92.80
2019-03-03T02:45:26.238Z,92.70
2019-03-03T02:47:02.460Z,92.70
2019-03-03T02:48:38.614Z,92.70
2019-03-03T02:50:16.744Z,93.20
2019-03-03T02:51:52.829Z,93.00
2019-03-03T02:53:28.745Z,92.90
2019-03-03T02:55:07.009Z,92.80
2019-03-03T02:56:43.191Z,92.80
2019-03-03T02:58:19.199Z,92.80
2019-03-03T02:59:56.561Z,92.90
2019-03-03T03:01:37.278Z,92.80
2019-03-03T03:03:14.461Z,92.70
2019-03-03T03:04:50.619Z,92.80
2019-03-03T03:06:40.569Z,92.80
2019-03-03T03:08:18.265Z,92.80
2019-03-03T03:10:04.982Z,92.90
2019-03-03T03:11:52.105Z,93.00
2019-03-03T03:13:35.789Z,93.30
2019-03-03T03:15:13.581Z,93.20
2019-03-03T03:16:57.071Z,93.40
2019-03-03T03:18:38.698Z,93.20
2019-03-03T03:20:16.408Z,93.20
2019-03-03T03:21:57.068Z,93.70
2019-03-03T03:23:48.201Z,93.60
2019-03-03T03:25:26.002Z,93.40
2019-03-03T03:27:03.829Z,93.40
2019-03-03T03:28:56.774Z,93.40
2019-03-03T03:30:34.560Z,93.30
2019-03-03T03:32:15.823Z,93.50
2019-03-03T03:33:59.595Z,93.40
2019-03-03T03:35:39.895Z,93.30
2019-03-03T03:37:30.466Z,93.30
2019-03-03T03:39:09.338Z,93.30
2019-03-03T03:40:52.593Z,93.10
2019-03-03T03:42:48.874Z,93.10
2019-03-03T03:44:26.666Z,93.10
2019-03-03T03:46:20.389Z,93.20
2019-03-03T03:48:07.172Z,93.00
2019-03-03T03:49:45.034Z,93.00
2019-03-03T03:51:29.080Z,93.00
2019-03-03T03:53:14.073Z,92.90
2019-03-03T03:55:07.881Z,92.90
2019-03-03T03:56:54.468Z,93.10
2019-03-03T03:58:39.528Z,92.90
2019-03-03T04:00:17.386Z,92.90
2019-03-03T04:01:55.361Z,92.90
2019-03-03T04:03:49.157Z,92.90
2019-03-03T04:05:35.998Z,92.90
2019-03-03T04:07:20.090Z,92.90
2019-03-03T04:09:09.811Z,93.00
2019-03-03T04:11:03.598Z,93.00
2019-03-03T04:12:41.385Z,92.90
2019-03-03T04:14:22.011Z,92.80
2019-03-03T04:16:05.478Z,92.80
2019-03-03T04:17:43.094Z,93.10
2019-03-03T04:19:23.689Z,93.20
2019-03-03T04:21:19.339Z,93.10
2019-03-03T04:23:02.608Z,92.90
2019-03-03T04:24:49.304Z,93.00
2019-03-03T04:26:43.259Z,92.90
2019-03-03T04:28:20.849Z,92.90
2019-03-03T04:30:01.121Z,93.40
2019-03-03T04:31:41.580Z,93.20
2019-03-03T04:33:24.918Z,93.30
2019-03-03T04:35:05.305Z,93.50
2019-03-03T04:36:47.267Z,93.30
2019-03-03T04:38:24.952Z,93.50
2019-03-03T04:40:08.698Z,93.50
2019-03-03T04:41:46.435Z,93.30
2019-03-03T04:43:24.065Z,93.50
2019-03-03T04:45:11.102Z,93.50
2019-03-03T04:46:48.818Z,93.50
2019-03-03T04:48:29.201Z,93.50
2019-03-03T04:50:21.772Z,93.40
2019-03-03T04:52:00.670Z,93.30
2019-03-03T04:53:38.309Z,93.50
2019-03-03T04:55:32.283Z,93.30
2019-03-03T04:57:26.097Z,93.40
2019-03-03T04:59:03.818Z,93.50
2019-03-03T05:00:41.703Z,93.40
2019-03-03T05:02:19.393Z,93.60
2019-03-03T05:04:09.501Z,93.80
2019-03-03T05:05:54.753Z,94.10
2019-03-03T05:07:32.481Z,93.80
2019-03-03T05:09:18.930Z,93.70
2019-03-03T05:11:12.872Z,93.70
2019-03-03T05:12:59.372Z,94.20
2019-03-03T05:14:37.022Z,94.40
2019-03-03T05:16:16.097Z,94.30
2019-03-03T05:17:56.771Z,94.40
2019-03-03T05:19:32.881Z,94.10
2019-03-03T05:21:08.849Z,94.20
2019-03-03T05:22:44.933Z,94.50
2019-03-03T05:24:20.910Z,94.40
2019-03-03T05:25:56.962Z,94.50
2019-03-03T05:27:32.965Z,94.20
2019-03-03T05:29:08.872Z,94.50
2019-03-03T05:30:45.140Z,94.60
2019-03-03T05:32:21.307Z,94.50
2019-03-03T05:33:57.407Z,94.30
2019-03-03T05:35:33.621Z,94.30
2019-03-03T05:37:09.623Z,94.40
2019-03-03T05:38:45.645Z,94.30
2019-03-03T05:40:21.631Z,94.20
2019-03-03T05:41:57.724Z,94.20
2019-03-03T05:43:33.973Z,94.00
2019-03-03T05:45:10.127Z,94.30
2019-03-03T05:46:48.431Z,94.40
2019-03-03T05:48:24.146Z,94.40
2019-03-03T05:50:00.293Z,94.20
2019-03-03T05:51:36.462Z,94.10
2019-03-03T05:53:12.545Z,94.30
2019-03-03T05:54:48.620Z,94.20
2019-03-03T05:56:24.728Z,94.20
2019-03-03T05:58:00.877Z,94.20
2019-03-03T05:59:36.963Z,94.10
2019-03-03T06:01:13.104Z,94.10
2019-03-03T06:02:49.343Z,94.10
2019-03-03T06:04:25.409Z,94.00
2019-03-03T06:06:01.464Z,93.90
2019-03-03T06:07:37.433Z,93.90
2019-03-03T06:09:14.739Z,93.70
2019-03-03T06:10:50.728Z,93.70
2019-03-03T06:12:26.690Z,93.70
2019-03-03T06:14:02.944Z,93.60
2019-03-03T06:15:39.080Z,93.60
2019-03-03T06:17:15.161Z,93.60
2019-03-03T06:18:51.317Z,93.50
2019-03-03T06:20:27.934Z,93.60
2019-03-03T06:22:04.369Z,93.30
2019-03-03T06:23:40.547Z,93.30
2019-03-03T06:25:16.576Z,93.30
2019-03-03T06:26:52.635Z,93.20
2019-03-03T06:28:28.769Z,93.00
2019-03-03T06:30:16.098Z,92.30
2019-03-03T06:31:52.169Z,91.70
2019-03-03T06:33:28.285Z,91.40
2019-03-03T06:35:06.767Z,91.00
2019-03-03T06:36:42.893Z,91.30
2019-03-03T06:38:18.967Z,91.20
2019-03-03T06:39:55.138Z,91.50
2019-03-03T06:41:31.183Z,91.30
2019-03-03T06:43:07.356Z,91.30
2019-03-03T06:44:43.343Z,91.40
2019-03-03T06:46:19.315Z,91.40
2019-03-03T06:47:55.397Z,91.50
2019-03-03T06:49:31.297Z,91.30
2019-03-03T06:51:07.332Z,91.50
2019-03-03T06:52:43.645Z,91.50
2019-03-03T06:54:19.714Z,91.40
2019-03-03T06:55:55.961Z,91.50
2019-03-03T06:57:31.949Z,91.40
2019-03-03T06:59:07.934Z,91.40
2019-03-03T07:00:44.101Z,91.70
2019-03-03T07:02:20.070Z,91.90
2019-03-03T07:03:56.163Z,91.90
2019-03-03T07:05:32.209Z,92.50
2019-03-03T07:07:08.267Z,92.10
2019-03-03T07:08:44.174Z,92.00
2019-03-03T07:10:20.209Z,91.90
2019-03-03T07:11:56.379Z,92.30
2019-03-03T07:13:32.419Z,92.50
2019-03-03T07:15:17.202Z,92.60
2019-03-03T07:16:53.419Z,92.30
2019-03-03T07:18:29.510Z,93.10
2019-03-03T07:20:09.269Z,93.30
2019-03-03T07:21:45.302Z,93.00
2019-03-03T07:23:21.410Z,92.80
2019-03-03T07:24:57.307Z,92.80
2019-03-03T07:26:33.350Z,92.80
2019-03-03T07:28:09.433Z,92.70
2019-03-03T07:29:45.455Z,93.30
2019-03-03T07:31:21.529Z,93.40
2019-03-03T07:33:03.225Z,93.50
2019-03-03T07:34:39.320Z,93.30
2019-03-03T07:36:15.326Z,93.70
2019-03-03T07:37:51.391Z,93.70
2019-03-03T07:39:27.357Z,93.50
2019-03-03T07:41:03.667Z,93.50
2019-03-03T07:42:39.725Z,94.00
2019-03-03T07:44:15.864Z,94.20
2019-03-03T07:45:51.976Z,93.30
2019-03-03T07:47:28.064Z,93.20
2019-03-03T07:49:04.158Z,93.20
2019-03-03T07:50:40.230Z,93.10
2019-03-03T07:52:16.472Z,92.70
2019-03-03T07:53:52.611Z,92.70
2019-03-03T07:55:28.728Z,92.30
2019-03-03T07:57:04.937Z,91.90
2019-03-03T07:58:41.008Z,91.60
2019-03-03T08:00:18.691Z,91.20
2019-03-03T08:01:54.933Z,90.30
2019-03-03T08:03:30.935Z,89.70
2019-03-03T08:05:09.747Z,88.90
2019-03-03T08:06:45.769Z,87.80
2019-03-03T08:08:21.850Z,85.20
2019-03-03T08:09:58.505Z,82.40
2019-03-03T08:11:34.784Z,81.40
2019-03-03T08:13:10.847Z,80.30
2019-03-03T08:14:46.914Z,77.30
2019-03-03T08:16:22.827Z,76.10
2019-03-03T08:17:59.013Z,74.90
2019-03-03T08:19:34.980Z,73.90
2019-03-03T08:21:10.968Z,73.00
2019-03-03T08:22:47.227Z,71.20
2019-03-03T08:24:23.142Z,69.60
2019-03-03T08:25:59.203Z,69.30
2019-03-03T08:27:35.358Z,68.60
2019-03-03T08:29:11.351Z,68.20
2019-03-03T08:30:47.233Z,67.70
2019-03-03T08:32:23.210Z,67.70
2019-03-03T08:33:59.339Z,67.80
2019-03-03T08:35:35.580Z,67.50
2019-03-03T08:37:11.822Z,67.10
2019-03-03T08:38:48.280Z,66.90
2019-03-03T08:40:24.486Z,66.90
2019-03-03T08:42:04.989Z,67.30
2019-03-03T08:43:42.533Z,66.90
2019-03-03T08:45:38.210Z,67.20
2019-03-03T08:47:31.066Z,68.10
2019-03-03T08:49:11.288Z,68.20
2019-03-03T08:50:53.688Z,68.60
2019-03-03T08:52:31.323Z,69.20
2019-03-03T08:54:25.147Z,69.80
2019-03-03T08:56:06.513Z,70.10
2019-03-03T08:57:50.085Z,70.10
2019-03-03T08:59:44.191Z,70.60
2019-03-03T09:01:30.543Z,70.80
2019-03-03T09:03:19.925Z,70.60
2019-03-03T09:04:57.792Z,70.70
2019-03-03T09:06:42.905Z,71.10
2019-03-03T09:08:23.654Z,71.60
2019-03-03T09:10:07.218Z,71.60
2019-03-03T09:11:52.007Z,72.20
2019-03-03T09:13:41.875Z,72.70
2019-03-03T09:15:19.645Z,72.80
2019-03-03T09:17:02.991Z,73.20
2019-03-03T09:18:46.631Z,72.70
2019-03-03T09:20:24.434Z,72.90
2019-03-03T09:22:04.682Z,72.90
2019-03-03T09:23:43.315Z,72.80
2019-03-03T09:25:37.482Z,72.80
2019-03-03T09:27:15.303Z,72.60
2019-03-03T09:28:53.070Z,72.70
2019-03-03T09:30:30.783Z,72.80
2019-03-03T09:32:26.662Z,72.50
2019-03-03T09:34:10.402Z,72.50
2019-03-03T09:35:54.216Z,72.50
2019-03-03T09:37:34.615Z,72.80
2019-03-03T09:39:12.385Z,72.70
2019-03-03T09:40:50.160Z,72.70
2019-03-03T09:42:31.946Z,72.90
2019-03-03T09:44:13.586Z,72.60
2019-03-03T09:45:51.185Z,72.60
2019-03-03T09:47:43.986Z,72.20
2019-03-03T09:49:24.454Z,72.30
2019-03-03T09:51:10.993Z,72.50
2019-03-03T09:52:51.537Z,72.60
2019-03-03T09:54:44.936Z,72.80
2019-03-03T09:56:38.848Z,72.60
2019-03-03T09:58:17.593Z,71.90
2019-03-03T09:59:55.300Z,70.70
2019-03-03T10:01:49.378Z,70.30
2019-03-03T10:03:29.775Z,69.10
2019-03-03T10:05:27.573Z,68.90
2019-03-03T10:07:13.631Z,69.30
2019-03-03T10:09:09.327Z,69.40
2019-03-03T10:10:55.954Z,69.40
2019-03-03T10:12:33.725Z,69.60
2019-03-03T10:14:11.606Z,70.10
2019-03-03T10:15:49.310Z,70.50
2019-03-03T10:17:43.117Z,71.00
2019-03-03T10:19:23.494Z,71.30
2019-03-03T10:21:13.159Z,71.90
2019-03-03T10:22:50.932Z,72.40
2019-03-03T10:24:37.226Z,73.20
2019-03-03T10:26:24.206Z,73.30
2019-03-03T10:28:08.798Z,73.90
2019-03-03T10:29:47.806Z,74.30
2019-03-03T10:31:28.455Z,74.40
2019-03-03T10:33:08.866Z,74.80
2019-03-03T10:35:02.862Z,75.10
2019-03-03T10:36:38.627Z,75.20
2019-03-03T10:38:16.439Z,75.20
2019-03-03T10:40:10.494Z,75.40
2019-03-03T10:42:04.431Z,75.50
2019-03-03T10:43:43.057Z,75.90
2019-03-03T10:45:20.938Z,76.10
2019-03-03T10:47:06.259Z,76.30
2019-03-03T10:48:44.120Z,76.80
2019-03-03T10:50:24.781Z,77.30
2019-03-03T10:52:02.628Z,77.20
2019-03-03T10:53:56.095Z,77.30
2019-03-03T10:55:32.073Z,77.50
2019-03-03T10:57:17.226Z,77.50
2019-03-03T10:58:59.497Z,77.70
2019-03-03T11:00:37.340Z,77.80
2019-03-03T11:02:32.351Z,77.80
2019-03-03T11:04:30.513Z,77.70
2019-03-03T11:06:39.231Z,77.80
2019-03-03T11:08:41.795Z,78.10
2019-03-03T11:10:37.688Z,78.10
2019-03-03T11:12:48.264Z,78.20
2019-03-03T11:14:43.409Z,78.20
2019-03-03T11:16:41.400Z,78.40
2019-03-03T11:18:37.104Z,78.60
2019-03-03T11:20:32.195Z,78.70
2019-03-03T11:22:37.512Z,78.80
2019-03-03T11:24:47.878Z,79.30
2019-03-03T11:26:59.174Z,79.80
2019-03-03T11:28:52.752Z,80.60
2019-03-03T11:30:47.598Z,80.80
2019-03-03T11:32:48.902Z,81.30
2019-03-03T11:35:00.640Z,82.30
2019-03-03T11:36:56.035Z,83.50
2019-03-03T11:38:55.537Z,84.30
2019-03-03T11:40:57.155Z,85.10
2019-03-03T11:43:06.781Z,85.60
2019-03-03T11:45:14.186Z,86.30
2019-03-03T11:47:24.173Z,87.00
2019-03-03T11:49:25.131Z,86.90
2019-03-03T11:51:36.784Z,86.90
2019-03-03T11:53:48.162Z,86.90
2019-03-03T11:56:00.138Z,87.10
2019-03-03T11:57:58.376Z,87.30
2019-03-03T12:00:00.677Z,87.70
2019-03-03T12:01:54.104Z,88.30
2019-03-03T12:04:01.283Z,88.50
2019-03-03T12:05:56.391Z,88.50
2019-03-03T12:07:49.844Z,88.70
2019-03-03T12:10:01.796Z,88.80
2019-03-03T12:11:59.945Z,88.90
2019-03-03T12:13:55.244Z,88.40
2019-03-03T12:15:51.839Z,89.10
2019-03-03T12:18:05.098Z,89.40
2019-03-03T12:20:00.362Z,89.40
2019-03-03T12:21:55.258Z,89.30
2019-03-03T12:23:50.358Z,89.20
2019-03-03T12:25:54.814Z,89.20
2019-03-03T12:27:58.044Z,89.00
2019-03-03T12:29:53.307Z,88.60
2019-03-03T12:31:57.278Z,88.20
2019-03-03T12:34:01.443Z,88.00
2019-03-03T12:36:11.507Z,87.50
2019-03-03T12:38:07.155Z,87.00
2019-03-03T12:40:14.786Z,86.30
2019-03-03T12:42:26.222Z,85.80
2019-03-03T12:44:23.818Z,85.20
2019-03-03T12:46:24.843Z,84.20
2019-03-03T12:48:18.383Z,83.80
2019-03-03T12:50:14.937Z,83.10
2019-03-03T12:52:09.995Z,81.90
2019-03-03T12:54:08.149Z,81.30
2019-03-03T12:56:19.213Z,80.20
2019-03-03T12:58:06.596Z,80.00
2019-03-03T12:59:44.303Z,80.00
2019-03-03T13:01:38.375Z,80.00
2019-03-03T13:03:32.402Z,79.70
2019-03-03T13:05:19.412Z,79.60
2019-03-03T13:06:57.139Z,79.20
2019-03-03T13:08:35.014Z,79.10
2019-03-03T13:10:20.538Z,79.10
2019-03-03T13:12:04.209Z,79.00
2019-03-03T13:13:44.600Z,80.20
2019-03-03T13:15:25.006Z,79.40
2019-03-03T13:17:21.226Z,79.40
2019-03-03T13:19:04.404Z,79.30
2019-03-03T13:20:42.129Z,79.40
2019-03-03T13:22:22.775Z,79.20
2019-03-03T13:24:00.569Z,79.00
2019-03-03T13:25:53.323Z,78.90
2019-03-03T13:27:31.173Z,78.80
2019-03-03T13:29:24.844Z,78.70
2019-03-03T13:31:05.523Z,78.60
2019-03-03T13:32:46.115Z,78.50
2019-03-03T13:34:24.840Z,78.40
2019-03-03T13:36:00.728Z,78.30
2019-03-03T13:37:47.318Z,78.30
2019-03-03T13:39:25.069Z,78.00
2019-03-03T13:41:03.616Z,78.10
2019-03-03T13:42:44.151Z,78.20
2019-03-03T13:44:20.051Z,78.00
2019-03-03T13:45:56.253Z,78.10
2019-03-03T13:47:32.586Z,77.90
2019-03-03T13:49:08.798Z,78.10
2019-03-03T13:50:45.081Z,78.00
2019-03-03T13:52:21.553Z,77.80
2019-03-03T13:53:57.655Z,77.40
2019-03-03T13:55:33.955Z,77.60
2019-03-03T13:57:10.265Z,77.50
2019-03-03T13:58:46.476Z,77.10
2019-03-03T14:00:24.263Z,77.50
2019-03-03T14:02:00.439Z,77.80
2019-03-03T14:03:36.978Z,77.60
2019-03-03T14:05:13.412Z,77.50
2019-03-03T14:06:49.649Z,77.50
2019-03-03T14:08:25.879Z,77.60
2019-03-03T14:10:02.081Z,77.80
2019-03-03T14:11:38.136Z,77.90
2019-03-03T14:13:14.220Z,77.90
2019-03-03T14:14:50.403Z,78.50
2019-03-03T14:16:26.645Z,77.40
2019-03-03T14:18:02.816Z,77.30
2019-03-03T14:19:38.956Z,77.00
2019-03-03T14:21:15.087Z,76.90
2019-03-03T14:22:53.298Z,77.10
2019-03-03T14:24:29.489Z,77.00
2019-03-03T14:26:05.688Z,76.90
2019-03-03T14:27:41.842Z,76.60
2019-03-03T14:29:18.177Z,76.40
2019-03-03T14:30:56.038Z,77.10
2019-03-03T14:32:33.546Z,77.20
2019-03-03T14:34:11.326Z,76.40
2019-03-03T14:35:47.431Z,76.50
2019-03-03T14:37:23.570Z,76.60
2019-03-03T14:38:59.679Z,76.40
2019-03-03T14:40:35.765Z,76.60
2019-03-03T14:42:11.893Z,76.90
2019-03-03T14:43:49.249Z,77.20
2019-03-03T14:45:25.621Z,76.90
2019-03-03T14:47:01.826Z,77.10
2019-03-03T14:48:38.014Z,77.10
2019-03-03T14:50:19.595Z,77.30
2019-03-03T14:51:55.700Z,77.40
2019-03-03T14:53:31.587Z,77.50
2019-03-03T14:55:17.539Z,77.60
2019-03-03T14:56:53.655Z,78.20
2019-03-03T14:58:30.181Z,77.40
2019-03-03T15:00:29.182Z,77.40
2019-03-03T15:02:05.485Z,77.20
2019-03-03T15:03:41.613Z,77.10
2019-03-03T15:05:17.854Z,77.20
2019-03-03T15:06:53.963Z,77.30
2019-03-03T15:08:30.090Z,77.10
2019-03-03T15:10:12.122Z,77.30
2019-03-03T15:11:48.488Z,77.30
2019-03-03T15:13:24.698Z,77.40
2019-03-03T15:15:00.978Z,77.30
2019-03-03T15:16:37.166Z,77.30
2019-03-03T15:18:13.462Z,77.30
2019-03-03T15:19:49.657Z,77.50
2019-03-03T15:21:25.742Z,77.60
2019-03-03T15:23:01.951Z,77.70
2019-03-03T15:24:38.008Z,77.80
2019-03-03T15:26:14.104Z,78.20
2019-03-03T15:27:50.410Z,78.10
2019-03-03T15:29:26.460Z,78.20
2019-03-03T15:31:02.668Z,78.20
2019-03-03T15:32:38.697Z,78.30
2019-03-03T15:34:14.859Z,78.50
2019-03-03T15:35:51.416Z,79.40
2019-03-03T15:37:27.620Z,78.80
2019-03-03T15:39:05.459Z,79.10
2019-03-03T15:40:43.039Z,79.20
2019-03-03T15:42:20.153Z,79.30
2019-03-03T15:43:56.295Z,79.80
2019-03-03T15:45:32.410Z,79.30
2019-03-03T15:47:08.444Z,79.40
2019-03-03T15:48:44.643Z,79.40
2019-03-03T15:50:22.549Z,79.60
2019-03-03T15:51:58.681Z,80.00
2019-03-03T15:53:34.905Z,80.00
2019-03-03T15:55:14.403Z,80.00
2019-03-03T15:56:50.597Z,80.10
2019-03-03T15:58:28.086Z,80.10
2019-03-03T16:00:06.337Z,80.30
2019-03-03T16:01:42.663Z,80.50
2019-03-03T16:03:18.752Z,80.60
2019-03-03T16:04:54.946Z,80.70
2019-03-03T16:06:31.072Z,80.80
2019-03-03T16:08:07.305Z,80.80
2019-03-03T16:09:43.319Z,80.80
2019-03-03T16:11:21.087Z,80.90
2019-03-03T16:12:57.319Z,80.90
2019-03-03T16:14:33.461Z,80.90
2019-03-03T16:16:09.896Z,80.80
2019-03-03T16:17:45.957Z,80.90
2019-03-03T16:19:22.095Z,80.90
2019-03-03T16:20:58.325Z,80.60
2019-03-03T16:22:34.620Z,80.60
2019-03-03T16:24:10.835Z,80.60
2019-03-03T16:25:46.849Z,80.70
2019-03-03T16:27:23.532Z,80.10
2019-03-03T16:28:59.398Z,80.80
2019-03-03T16:30:35.438Z,80.80
2019-03-03T16:32:11.560Z,80.70
2019-03-03T16:33:47.560Z,80.80
2019-03-03T16:35:23.701Z,80.80
2019-03-03T16:37:00.008Z,80.90
2019-03-03T16:40:25.105Z,80.80
2019-03-03T16:42:01.143Z,81.00
2019-03-03T16:43:37.136Z,81.10
2019-03-03T16:45:15.832Z,81.00
2019-03-03T16:46:51.701Z,81.00
2019-03-03T16:48:27.837Z,81.10
2019-03-03T16:50:04.143Z,81.10
2019-03-03T16:51:40.344Z,81.30
2019-03-03T16:53:16.270Z,81.70
2019-03-03T16:54:52.407Z,81.30
2019-03-03T16:56:28.471Z,81.30
2019-03-03T16:58:04.665Z,81.30
2019-03-03T16:59:40.652Z,81.30
2019-03-03T17:01:16.859Z,81.50
2019-03-03T17:02:53.410Z,81.60
2019-03-03T17:04:29.748Z,81.70
2019-03-03T17:06:06.246Z,81.80
2019-03-03T17:07:42.335Z,81.80
2019-03-03T17:09:18.374Z,82.10
2019-03-03T17:10:54.907Z,82.20
2019-03-03T17:12:30.935Z,82.70
2019-03-03T17:14:06.983Z,82.80
2019-03-03T17:15:42.886Z,83.00
2019-03-03T17:17:18.845Z,83.20
2019-03-03T17:18:55.107Z,83.30
2019-03-03T17:20:31.361Z,83.30
2019-03-03T17:22:07.541Z,83.40
2019-03-03T17:23:43.540Z,83.40
2019-03-03T17:25:27.925Z,83.50
2019-03-03T17:27:04.023Z,83.60
2019-03-03T17:28:40.260Z,83.60
2019-03-03T17:30:19.447Z,83.60
2019-03-03T17:31:55.647Z,83.80
2019-03-03T17:33:31.812Z,83.70
2019-03-03T17:35:08.453Z,83.70
2019-03-03T17:36:44.442Z,83.60
2019-03-03T17:38:20.463Z,83.60
2019-03-03T17:39:56.741Z,83.60
2019-03-03T17:41:34.170Z,83.70
2019-03-03T17:43:10.264Z,83.80
2019-03-03T17:44:46.322Z,83.70
2019-03-03T17:46:22.957Z,83.70
2019-03-03T17:47:59.043Z,83.80
2019-03-03T17:49:35.091Z,84.10
2019-03-03T17:51:11.151Z,84.70
2019-03-03T17:52:47.483Z,85.10
2019-03-03T17:54:23.545Z,85.90
2019-03-03T17:55:59.689Z,85.90
2019-03-03T17:57:35.762Z,85.70
2019-03-03T17:59:11.891Z,86.20
2019-03-03T18:00:48.899Z,86.20
2019-03-03T18:02:25.029Z,86.30
2019-03-03T18:04:01.099Z,86.70
2019-03-03T18:05:38.522Z,86.20
2019-03-03T18:07:14.571Z,86.80
2019-03-03T18:08:50.751Z,87.00
2019-03-03T18:10:26.931Z,87.20
2019-03-03T18:12:03.060Z,87.40
2019-03-03T18:13:39.108Z,87.70
2019-03-03T18:15:16.916Z,87.80
2019-03-03T18:16:52.958Z,88.00
2019-03-03T18:18:29.060Z,88.10
2019-03-03T18:20:08.238Z,88.40
2019-03-03T18:21:44.289Z,88.50
2019-03-03T18:23:20.520Z,88.60
2019-03-03T18:24:56.482Z,88.60
2019-03-03T18:26:32.528Z,88.70
2019-03-03T18:28:08.933Z,88.90
2019-03-03T18:29:44.953Z,89.00
2019-03-03T18:31:21.078Z,89.00
2019-03-03T18:32:57.170Z,89.00
2019-03-03T18:34:33.337Z,89.20
2019-03-03T18:36:09.558Z,89.20
2019-03-03T18:37:46.409Z,89.70
2019-03-03T18:39:22.672Z,90.30
2019-03-03T18:40:58.769Z,90.10
2019-03-03T18:42:35.098Z,90.20
2019-03-03T18:44:11.229Z,90.20
2019-03-03T18:45:47.369Z,90.40
2019-03-03T18:47:23.567Z,90.40
2019-03-03T18:48:59.640Z,90.50
2019-03-03T18:50:35.777Z,90.80
2019-03-03T18:52:11.905Z,90.90
2019-03-03T18:53:47.906Z,90.90
2019-03-03T18:55:24.015Z,91.00
2019-03-03T18:57:00.147Z,91.00
2019-03-03T18:58:36.315Z,91.00
2019-03-03T19:00:30.124Z,90.90
2019-03-03T19:02:06.356Z,91.00
2019-03-03T19:03:42.461Z,91.00
2019-03-03T19:05:18.776Z,91.00
2019-03-03T19:06:54.838Z,90.80
2019-03-03T19:08:31.039Z,90.90
2019-03-03T19:10:14.209Z,90.70
2019-03-03T19:11:50.339Z,90.60
2019-03-03T19:13:26.464Z,90.60
2019-03-03T19:15:02.605Z,90.50
2019-03-03T19:16:39.331Z,90.40
2019-03-03T19:18:15.933Z,90.40
2019-03-03T19:19:52.083Z,90.20
2019-03-03T19:21:28.145Z,90.30
2019-03-03T19:23:04.604Z,90.20
2019-03-03T19:24:40.734Z,90.10
2019-03-03T19:26:18.913Z,90.00
2019-03-03T19:27:54.834Z,89.70
2019-03-03T19:29:30.942Z,89.60
2019-03-03T19:31:07.144Z,89.50
2019-03-03T19:32:43.940Z,89.40
2019-03-03T19:34:20.736Z,89.40
2019-03-03T19:35:56.842Z,89.30
2019-03-03T19:37:33.042Z,89.20
2019-03-03T19:39:09.260Z,89.20
2019-03-03T19:40:45.451Z,89.00
2019-03-03T19:42:21.534Z,88.90
2019-03-03T19:43:57.672Z,88.80
2019-03-03T19:45:50.427Z,88.40
2019-03-03T19:47:26.644Z,88.30
2019-03-03T19:49:02.855Z,88.20
2019-03-03T19:50:39.247Z,88.00
2019-03-03T19:52:15.446Z,87.80
2019-03-03T19:53:51.576Z,87.60
2019-03-03T19:55:27.767Z,87.50
2019-03-03T19:57:03.969Z,87.40
2019-03-03T19:58:40.100Z,87.30
2019-03-03T20:00:35.616Z,87.20
2019-03-03T20:02:07.362Z,87.10
2019-03-03T20:03:43.509Z,87.10
2019-03-03T20:05:19.707Z,87.00
2019-03-03T20:06:55.907Z,87.00
2019-03-03T20:08:32.029Z,86.90
2019-03-03T20:10:12.645Z,86.90
2019-03-03T20:11:48.706Z,86.90
2019-03-03T20:13:24.744Z,86.80
2019-03-03T20:15:00.941Z,86.90
2019-03-03T20:16:36.972Z,86.90
2019-03-03T20:18:13.097Z,87.00
2019-03-03T20:19:49.100Z,86.90
2019-03-03T20:21:25.195Z,87.00
2019-03-03T20:23:02.712Z,86.90
2019-03-03T20:24:39.044Z,87.00
2019-03-03T20:26:15.437Z,87.00
2019-03-03T20:27:51.651Z,86.90
2019-03-03T20:29:27.739Z,86.80
2019-03-03T20:31:04.064Z,86.80
2019-03-03T20:32:40.298Z,86.80
2019-03-03T20:34:16.431Z,86.80
2019-03-03T20:35:52.487Z,86.90
2019-03-03T20:37:28.686Z,86.90
2019-03-03T20:39:06.930Z,86.90
2019-03-03T20:40:43.129Z,86.70
2019-03-03T20:42:19.302Z,86.70
2019-03-03T20:43:55.442Z,86.50
2019-03-03T20:45:33.271Z,86.80
2019-03-03T20:47:09.480Z,86.70
2019-03-03T20:48:45.591Z,86.80
2019-03-03T20:50:23.991Z,86.70
2019-03-03T20:51:59.955Z,86.70
2019-03-03T20:53:36.038Z,86.70
2019-03-03T20:55:15.898Z,86.90
2019-03-03T20:56:52.010Z,87.70
2019-03-03T20:58:28.070Z,87.00
2019-03-03T21:00:05.921Z,87.20
2019-03-03T21:01:41.979Z,87.20
2019-03-03T21:03:18.012Z,87.60
2019-03-03T21:04:54.446Z,87.60
2019-03-03T21:06:30.552Z,87.60
2019-03-03T21:08:06.493Z,87.70
2019-03-03T21:09:42.856Z,87.70
2019-03-03T21:11:19.086Z,87.80
2019-03-03T21:12:55.424Z,87.70
2019-03-03T21:14:31.456Z,87.80
2019-03-03T21:16:07.672Z,87.60
2019-03-03T21:17:43.973Z,88.20
2019-03-03T21:19:20.145Z,87.70
2019-03-03T21:20:56.195Z,87.70
2019-03-03T21:22:37.769Z,87.80
2019-03-03T21:24:13.938Z,87.70
2019-03-03T21:25:50.236Z,87.60
2019-03-03T21:27:26.383Z,87.70
2019-03-03T21:29:02.679Z,87.70
2019-03-03T21:30:38.817Z,87.60
2019-03-03T21:32:15.421Z,87.30
2019-03-03T21:33:53.319Z,87.30
2019-03-03T21:35:29.421Z,87.50